< < Back
Terminal Aerodrome Forecast


Current Version              Previous Versions:   1  2  3  4  5  6  7  8  9  

Terminal Aerodrome Forecast

243
FTUS42 KCHS 281121
TAFSAV
TAF
KSAV 281121Z 2812/2912 30009KT P6SM SKC
     FM281600 29012G19KT P6SM FEW050
     FM282330 32005KT P6SM SKC=



Latest METAR

643
SAUS80 KWBC 281900 RRC
MTRSAV
METAR KSAV 281853Z 26012G20KT 10SM FEW060 15/M03 A3008 RMK AO2 SLP183
T01501033


USA.gov is the U.S. government's official web portal to all federal, state and local government web resources and services.